Meteo Giornale » Osservazioni meteo Italia » Messina

ore: 11:55 - Osservazioni Meteo Messina
Lat. 38° 12' N Lon. 15° 33' E Alt. 59 metri s.l.m.

nuvoloso Europe/Rome

29 °C

Nuvoloso

Temp. 24 Ore

26 °C

32 °C

Nord-Ovest

16.7 Km/h

Dew point 19 °C

Umidità 54 %

Visibilità  10 Km

Il sole sorge alle ore 05:53

Il sole tramonta alle ore 20:15

Data e Ora Cielo e Fenomeni T °C DP °C Um. % Pres. hPa Vis. km Vento km/h
Oggi h: 11:55 nuvoloso Nuvoloso 29 19 54 1008 10 NO 16.7
Oggi h: 10:55 nuvoloso Nuvoloso 29 22 66 1008 10 N/NO 22.2
Oggi h: 09:55 poco_nuvoloso Poco Nuvoloso 29 21 62 1008 10 NO 27.8
Oggi h: 08:55 poco_nuvoloso Poco Nuvoloso 28 22 69 1008 10 NO 27.8
Oggi h: 07:55 poco_nuvoloso Poco Nuvoloso 27 22 74 1008 10 NO 25.9
Oggi h: 06:55 poco_nuvoloso Poco Nuvoloso 26 24 88 1007 10 N/NO 13
Oggi h: 05:55 poco_nuvoloso Poco Nuvoloso 26 23 83 1007 10 NO 18.5
Oggi h: 04:55 poco_nuvoloso Poco Nuvoloso 26 24 88 1007 10 NO 11.1
Oggi h: 03:55 poco_nuvoloso Poco Nuvoloso 27 24 83 1008 10 N 13
Oggi h: 02:55 poco_nuvoloso Poco Nuvoloso 27 24 83 1008 10 NE 16.7
Oggi h: 01:55 poco_nuvoloso Poco Nuvoloso 27 25 88 1009 10 N/NO 14.8
Oggi h: 00:55 poco_nuvoloso Poco Nuvoloso 28 25 83 1009 10 NO 13
Ieri h: 23:55 nuvoloso Nuvoloso 28 25 83 1009 10 N 11.1
Ieri h: 22:55 poco_nuvoloso Poco Nuvoloso 28 25 83 1009 10 NE 16.7
Ieri h: 21:55 poco_nuvoloso Poco Nuvoloso 29 25 79 1009 10 NE 13
Ieri h: 20:55 sereno Sereno 30 23 66 1009 10 E 11.1
Ieri h: 19:55 sereno Sereno 31 21 55 1008 10 N/NE 11.1
Ieri h: 18:55 sereno Sereno 32 18 43 1009 10 N/NO 13
Ieri h: 17:55 sereno Sereno 32 14 33 1009 10 SO 11.1
Ieri h: 16:55 sereno Sereno 32 14 33 1009 10 SO 18.5
Ieri h: 15:55 sereno Sereno 31 17 43 1009 10 SO 20.3
Ieri h: 14:55 sereno Sereno 31 18 45 1010 10 SO 16.7
Ieri h: 13:55 sereno Sereno 31 18 45 1010 10 SO 22.2
Ieri h: 12:55 sereno Sereno 31 14 35 1010 10 SO 22.2